Time;durP1;ratioP1;P1;durP2;ratioP2;P2;SDS_P1;SDS_P2;PMS_P1;PMS_P2;Temp;Humidity;BMP_temperature;BMP_pressure;BME280_temperature;BME280_humidity;BME280_pressure;Samples;Min_cycle;Max_cycle;Signal;HPM_P1;HPM_P2
2023/10/05 00:01:11;;;;;;;5.23;1.80;;;;;;;8.45;100.00;148274.59;4881431;29;20246;-61
2023/10/05 00:03:43;;;;;;;4.67;1.87;;;;;;;8.42;100.00;148268.41;4880136;29;20243;-62
2023/10/05 00:06:13;;;;;;;5.43;2.10;;;;;;;8.34;100.00;148248.50;4883556;29;20234;-61
2023/10/05 00:08:43;;;;;;;8.87;1.87;;;;;;;8.27;100.00;148231.09;4878451;29;20579;-62
2023/10/05 00:11:14;;;;;;;4.07;2.07;;;;;;;8.20;100.00;148214.91;4882265;29;20774;-61
2023/10/05 00:13:40;;;;;;;7.90;2.17;;;;;;;8.17;100.00;148206.22;4881009;29;20253;-62
2023/10/05 00:16:09;;;;;;;7.07;1.80;;;;;;;8.20;100.00;148214.91;4879891;29;20740;-60
2023/10/05 00:18:35;;;;;;;9.27;2.13;;;;;;;8.15;100.00;148201.22;4879170;29;20244;-60
2023/10/05 00:21:06;;;;;;;7.50;2.00;;;;;;;8.16;100.00;148203.72;4882417;29;20356;-60
2023/10/05 00:23:34;;;;;;;4.87;1.40;;;;;;;8.18;100.00;148208.69;4877336;29;20234;-61
2023/10/05 00:26:02;;;;;;;4.07;1.57;;;;;;;8.15;100.00;148201.22;4881493;29;20237;-61
2023/10/05 00:28:30;;;;;;;8.50;2.10;;;;;;;8.09;100.00;148188.81;4879036;29;20706;-61
2023/10/05 00:30:57;;;;;;;5.82;2.42;;;;;;;8.09;100.00;148188.81;4878268;29;20504;-60
2023/10/05 00:33:25;;;;;;;5.37;1.70;;;;;;;8.11;100.00;148192.50;4891394;29;20324;-61
2023/10/05 00:35:52;;;;;;;5.50;1.77;;;;;;;8.18;100.00;148208.69;4880075;29;20230;-61
2023/10/05 00:38:19;;;;;;;7.37;1.80;;;;;;;8.13;100.00;148198.75;4881992;29;20237;-60
2023/10/05 00:40:57;;;;;;;4.77;1.77;;;;;;;8.19;100.00;148211.19;4879774;29;20685;-60
2023/10/05 00:43:25;;;;;;;6.23;1.87;;;;;;;8.20;100.00;148213.66;4878551;29;20851;-61
2023/10/05 00:45:53;;;;;;;9.13;2.00;;;;;;;8.16;100.00;148204.94;4881675;29;20246;-61
2023/10/05 00:48:34;;;;;;;8.57;1.77;;;;;;;8.20;100.00;148214.91;4881481;29;20748;-60
2023/10/05 00:51:06;;;;;;;7.23;1.80;;;;;;;8.24;100.00;148223.63;4891456;29;20600;-61
2023/10/05 00:53:33;;;;;;;8.53;2.13;;;;;;;8.23;100.00;148221.13;4878098;29;20235;-61
2023/10/05 00:56:07;;;;;;;6.33;1.87;;;;;;;8.18;100.00;148209.91;4874989;29;20262;-62
2023/10/05 00:58:43;;;;;;;8.43;1.60;;;;;;;8.21;100.00;148217.38;4872473;29;20744;-61
2023/10/05 01:01:15;;;;;;;5.37;2.07;;;;;;;8.20;100.00;148214.91;4884100;29;20272;-60
2023/10/05 01:04:11;;;;;;;5.53;1.77;;;;;;;8.20;100.00;148213.66;4878199;29;20226;-61
2023/10/05 01:06:40;;;;;;;4.20;1.63;;;;;;;8.13;100.00;148198.75;4881159;29;20776;-61
2023/10/05 01:09:15;;;;;;;5.50;1.80;;;;;;;8.14;100.00;148199.97;4882864;29;20241;-61
2023/10/05 01:11:43;;;;;;;3.03;1.40;;;;;;;8.11;100.00;148193.78;4895111;29;20230;-61
2023/10/05 01:14:10;;;;;;;6.23;1.80;;;;;;;8.10;100.00;148191.28;4884376;29;20245;-61
2023/10/05 01:16:37;;;;;;;4.47;1.93;;;;;;;8.00;100.00;148166.41;4877943;29;20238;-62
2023/10/05 01:19:07;;;;;;;7.37;1.83;;;;;;;8.04;100.00;148176.38;4882427;29;20240;-60
2023/10/05 01:21:36;;;;;;;9.70;1.67;;;;;;;8.01;100.00;148168.91;4879948;29;20226;-61
2023/10/05 01:24:05;;;;;;;5.57;1.70;;;;;;;7.93;100.00;148149.00;4885751;29;20222;-62
2023/10/05 01:26:34;;;;;;;6.80;1.70;;;;;;;7.91;100.00;148144.03;4878370;29;20247;-61
2023/10/05 01:29:01;;;;;;;8.87;1.80;;;;;;;7.92;100.00;148146.53;4881732;29;20229;-62
2023/10/05 01:31:29;;;;;;;9.50;1.80;;;;;;;7.93;100.00;148149.00;4881033;29;20226;-61
2023/10/05 01:33:58;;;;;;;5.17;1.80;;;;;;;7.92;100.00;148147.78;4882874;29;20242;-62
2023/10/05 01:36:25;;;;;;;4.57;1.80;;;;;;;7.83;100.00;148125.41;4895492;28;21629;-62
2023/10/05 01:38:54;;;;;;;4.70;1.70;;;;;;;7.82;100.00;148124.16;4897043;29;20249;-62
2023/10/05 01:41:22;;;;;;;3.57;1.50;;;;;;;7.77;100.00;148111.72;4882790;29;20226;-62
2023/10/05 01:43:51;;;;;;;6.37;1.60;;;;;;;7.72;100.00;148099.28;4878850;29;20239;-62
2023/10/05 01:46:18;;;;;;;4.73;1.67;;;;;;;7.75;100.00;148106.75;4883102;29;20238;-63
2023/10/05 01:48:44;;;;;;;5.50;1.90;;;;;;;7.79;100.00;148116.69;4880626;29;20256;-62
2023/10/05 01:51:14;;;;;;;3.80;1.73;;;;;;;7.77;100.00;148111.72;4882933;29;20246;-61
2023/10/05 01:53:42;;;;;;;6.73;1.57;;;;;;;7.72;100.00;148099.28;4881475;29;20233;-62
2023/10/05 01:56:14;;;;;;;6.87;1.67;;;;;;;7.69;100.00;148091.81;4879815;29;20224;-61
2023/10/05 01:58:43;;;;;;;4.90;1.80;;;;;;;7.73;100.00;148101.75;4876250;29;20234;-62
2023/10/05 02:01:10;;;;;;;4.93;1.73;;;;;;;7.77;100.00;148111.72;4882298;29;20280;-62
2023/10/05 02:03:38;;;;;;;4.77;1.47;;;;;;;7.84;100.00;148127.91;4882060;29;20694;-62
2023/10/05 02:06:11;;;;;;;6.07;2.13;;;;;;;7.90;100.00;148141.56;4882364;29;20301;-62
2023/10/05 02:08:39;;;;;;;6.20;2.20;;;;;;;7.92;100.00;148146.53;4878177;29;20258;-62
2023/10/05 02:11:07;;;;;;;7.43;2.00;;;;;;;7.93;100.00;148149.00;4898340;29;20245;-62
2023/10/05 02:13:34;;;;;;;7.27;1.77;;;;;;;7.96;100.00;148156.47;4879158;29;20241;-61
2023/10/05 02:16:05;;;;;;;7.47;2.27;;;;;;;8.03;100.00;148172.59;4896667;29;20317;-62
2023/10/05 02:18:33;;;;;;;4.00;1.70;;;;;;;8.06;100.00;148180.06;4879152;29;20258;-62
2023/10/05 02:21:06;;;;;;;5.40;1.57;;;;;;;8.09;100.00;148188.81;4881465;29;20233;-62
2023/10/05 02:23:39;;;;;;;6.07;2.07;;;;;;;8.13;100.00;148197.47;4894958;29;20556;-62
2023/10/05 02:26:09;;;;;;;5.63;1.80;;;;;;;8.31;100.00;148241.03;4883043;29;20234;-62
2023/10/05 02:28:39;;;;;;;9.07;2.10;;;;;;;8.39;100.00;148259.66;4894074;29;20235;-61
2023/10/05 02:31:12;;;;;;;4.23;1.83;;;;;;;8.37;100.00;148255.97;4881236;29;20266;-62
2023/10/05 02:33:40;;;;;;;4.80;1.80;;;;;;;8.40;100.00;148263.41;4893427;29;20242;-62
2023/10/05 02:36:14;;;;;;;3.47;1.73;;;;;;;8.46;100.00;148275.84;4880146;29;20279;-62
2023/10/05 02:38:49;;;;;;;8.27;2.10;;;;;;;8.55;100.00;148298.25;4879843;29;20230;-61
2023/10/05 02:41:17;;;;;;;6.70;1.77;;;;;;;8.60;100.00;148309.47;4881989;29;20226;-62
2023/10/05 02:43:52;;;;;;;3.07;1.77;;;;;;;8.60;100.00;148309.47;4881271;29;20329;-62
2023/10/05 02:46:24;;;;;;;7.00;2.00;;;;;;;8.63;100.00;148316.94;4882860;29;20354;-62
2023/10/05 02:48:51;;;;;;;5.57;2.00;;;;;;;8.68;100.00;148329.38;4894587;29;20593;-62
2023/10/05 02:51:18;;;;;;;4.73;1.70;;;;;;;8.68;100.00;148330.59;4882108;29;20342;-63
2023/10/05 02:53:46;;;;;;;6.20;1.47;;;;;;;8.67;100.00;148326.88;4894212;29;20241;-62
2023/10/05 02:56:22;;;;;;;4.40;1.80;;;;;;;8.70;100.00;148335.56;4880762;29;20226;-62
2023/10/05 02:58:52;;;;;;;7.63;2.63;;;;;;;8.69;100.00;148333.06;4877332;29;20316;-62
2023/10/05 03:01:21;;;;;;;9.20;2.13;;;;;;;8.68;100.00;148329.38;4895154;29;20232;-62
2023/10/05 03:03:48;;;;;;;3.20;1.70;;;;;;;8.72;100.00;148339.31;4879291;29;20251;-62
2023/10/05 03:06:15;;;;;;;13.50;1.90;;;;;;;8.69;100.00;148333.06;4896278;28;20231;-62
2023/10/05 03:08:43;;;;;;;5.93;2.13;;;;;;;8.67;100.00;148328.09;4877529;29;20306;-62
2023/10/05 03:11:11;;;;;;;4.53;1.63;;;;;;;8.68;100.00;148330.59;4880887;29;20236;-62
2023/10/05 03:13:38;;;;;;;4.73;1.60;;;;;;;8.77;100.00;148351.75;4879014;29;20235;-62
2023/10/05 03:16:10;;;;;;;4.07;2.13;;;;;;;8.74;100.00;148344.28;4882203;29;20230;-62
2023/10/05 03:18:42;;;;;;;4.40;1.83;;;;;;;8.72;100.00;148339.31;4892435;29;20224;-63
2023/10/05 03:21:11;;;;;;;7.93;2.13;;;;;;;8.72;100.00;148339.31;4881381;29;20358;-62
2023/10/05 03:23:40;;;;;;;6.10;1.80;;;;;;;8.69;100.00;148331.84;4878171;29;20234;-62
2023/10/05 03:26:10;;;;;;;7.37;2.77;;;;;;;8.76;100.00;148348.00;4884003;29;20327;-62
2023/10/05 03:28:38;;;;;;;4.47;2.03;;;;;;;8.77;100.00;148351.75;4893314;29;20226;-62
2023/10/05 03:31:14;;;;;;;5.27;2.53;;;;;;;8.79;100.00;148355.47;5077982;23;20238;-62
2023/10/05 03:33:51;;;;;;;7.97;3.90;;;;;;;8.75;100.00;148345.50;4846817;29;20346;-63
2023/10/05 03:36:20;;;;;;;8.53;3.10;;;;;;;8.69;100.00;148331.84;4858103;29;20242;-63
2023/10/05 03:38:55;;;;;;;7.93;3.50;;;;;;;8.67;100.00;148328.09;4809169;29;20336;-63
2023/10/05 03:41:27;;;;;;;9.20;3.53;;;;;;;8.62;100.00;148314.44;4832211;29;20336;-63
2023/10/05 03:44:00;;;;;;;8.87;3.37;;;;;;;8.62;100.00;148315.66;4829294;29;20240;-63
2023/10/05 03:46:35;;;;;;;8.57;3.17;;;;;;;8.58;100.00;148305.72;4804989;29;20316;-62
2023/10/05 03:49:06;;;;;;;7.33;3.47;;;;;;;8.57;100.00;148304.50;4855692;29;20278;-63
2023/10/05 03:51:49;;;;;;;7.20;2.73;;;;;;;8.56;100.00;148300.72;4853867;29;20669;-63
2023/10/05 03:54:21;;;;;;;6.23;2.90;;;;;;;8.54;100.00;148295.75;4861167;29;20248;-62
2023/10/05 03:57:04;;;;;;;8.10;2.80;;;;;;;8.52;100.00;148290.78;4812369;29;20272;-63
2023/10/05 03:59:32;;;;;;;7.43;2.80;;;;;;;8.50;100.00;148285.81;4827044;29;20220;-62
2023/10/05 04:02:00;;;;;;;8.30;2.57;;;;;;;8.49;100.00;148283.31;4866999;29;20251;-62
2023/10/05 04:04:28;;;;;;;5.83;2.50;;;;;;;8.49;100.00;148283.31;4864037;29;20239;-62
2023/10/05 04:06:57;;;;;;;6.87;2.70;;;;;;;8.49;100.00;148284.59;4880614;29;20243;-62
2023/10/05 04:09:28;;;;;;;8.47;2.50;;;;;;;8.47;100.00;148278.34;4860694;29;20327;-63
2023/10/05 04:11:54;;;;;;;7.07;2.50;;;;;;;8.47;100.00;148279.56;4866307;29;20244;-62
2023/10/05 04:14:21;;;;;;;3.53;2.17;;;;;;;8.50;100.00;148285.81;4865555;29;20244;-62
2023/10/05 04:16:48;;;;;;;7.67;2.87;;;;;;;8.48;100.00;148280.84;4863855;29;20240;-62
2023/10/05 04:19:17;;;;;;;7.87;2.53;;;;;;;8.45;100.00;148274.59;4864393;29;20250;-62
2023/10/05 04:21:45;;;;;;;5.10;2.30;;;;;;;8.45;100.00;148273.38;4864236;29;20700;-62
2023/10/05 04:24:14;;;;;;;5.17;2.17;;;;;;;8.45;100.00;148273.38;4867379;29;20723;-62
2023/10/05 04:26:44;;;;;;;5.50;1.80;;;;;;;8.44;100.00;148270.88;4862130;29;20254;-62
2023/10/05 04:29:11;;;;;;;5.60;2.23;;;;;;;8.44;100.00;148270.88;4864643;29;20242;-60
2023/10/05 04:31:38;;;;;;;4.03;2.17;;;;;;;8.41;100.00;148264.63;4863422;29;20573;-60
2023/10/05 04:34:06;;;;;;;6.17;2.10;;;;;;;8.44;100.00;148272.09;4865676;29;20315;-61
2023/10/05 04:36:33;;;;;;;8.90;2.33;;;;;;;8.48;100.00;148282.06;4861836;29;20235;-61
2023/10/05 04:39:01;;;;;;;4.83;2.03;;;;;;;8.50;100.00;148285.81;4864514;29;20249;-61
2023/10/05 04:41:34;;;;;;;5.27;1.80;;;;;;;8.47;100.00;148279.56;4857774;29;20312;-61
2023/10/05 04:44:03;;;;;;;5.63;2.20;;;;;;;8.46;100.00;148275.84;4866083;29;20584;-61
2023/10/05 04:46:30;;;;;;;5.20;1.93;;;;;;;8.46;100.00;148275.84;4862279;29;20259;-61
2023/10/05 04:48:56;;;;;;;4.17;2.10;;;;;;;8.45;100.00;148273.38;4864617;29;20694;-61
2023/10/05 04:51:24;;;;;;;8.27;2.30;;;;;;;8.43;100.00;148269.63;4865573;29;20234;-61
2023/10/05 04:53:54;;;;;;;3.13;1.80;;;;;;;8.47;100.00;148278.34;4861612;29;20259;-61
2023/10/05 04:56:35;;;;;;;4.40;1.80;;;;;;;8.45;100.00;148273.38;4865172;29;20228;-61
2023/10/05 04:59:24;;;;;;;5.43;2.23;;;;;;;8.44;100.00;148270.88;4861190;29;20247;-61
2023/10/05 05:01:59;;;;;;;4.73;1.70;;;;;;;8.44;100.00;148270.88;4859242;29;20244;-61
2023/10/05 05:04:41;;;;;;;5.83;2.10;;;;;;;8.42;100.00;148267.13;4861218;29;20262;-61
2023/10/05 05:07:09;;;;;;;4.87;1.83;;;;;;;8.46;100.00;148275.84;4864933;29;20336;-61
2023/10/05 05:09:39;;;;;;;5.67;2.20;;;;;;;8.45;100.00;148273.38;4862581;29;20239;-63
2023/10/05 05:12:09;;;;;;;7.03;2.40;;;;;;;8.42;100.00;148267.13;4863031;29;20241;-62
2023/10/05 05:14:41;;;;;;;5.13;2.20;;;;;;;8.48;100.00;148280.84;4861679;29;20229;-62
2023/10/05 05:17:10;;;;;;;6.60;2.00;;;;;;;8.48;100.00;148282.06;4864894;29;20315;-61
2023/10/05 05:19:38;;;;;;;6.47;2.17;;;;;;;8.50;100.00;148285.81;4860345;29;21119;-62
2023/10/05 05:22:06;;;;;;;3.23;1.90;;;;;;;8.50;100.00;148285.81;4863091;29;20239;-61
2023/10/05 05:24:33;;;;;;;8.00;2.43;;;;;;;8.46;100.00;148275.84;4861488;29;20231;-62
2023/10/05 05:27:03;;;;;;;6.43;2.43;;;;;;;8.44;100.00;148270.88;4861222;29;20243;-62
2023/10/05 05:29:33;;;;;;;8.83;1.97;;;;;;;8.44;100.00;148272.09;4861730;29;20242;-62
2023/10/05 05:32:06;;;;;;;4.63;2.67;;;;;;;8.41;100.00;148265.91;4862051;29;20236;-61
2023/10/05 05:34:32;;;;;;;3.90;1.90;;;;;;;8.38;100.00;148257.19;4859948;29;20769;-61
2023/10/05 05:36:59;;;;;;;5.77;1.70;;;;;;;8.38;100.00;148258.44;4862932;29;20710;-61
2023/10/05 05:39:26;;;;;;;5.30;1.90;;;;;;;8.41;100.00;148264.63;4861993;29;20238;-61
2023/10/05 05:41:59;;;;;;;10.57;5.33;;;;;;;8.44;100.00;148272.09;4864177;29;20720;-61
2023/10/05 05:44:28;;;;;;;8.07;2.07;;;;;;;8.41;100.00;148264.63;4859916;29;20288;-61
2023/10/05 05:46:59;;;;;;;8.77;2.30;;;;;;;8.41;100.00;148265.91;4862442;29;20235;-61
2023/10/05 05:49:27;;;;;;;3.80;1.80;;;;;;;8.42;100.00;148268.41;4861520;29;20651;-61
2023/10/05 05:51:57;;;;;;;9.23;2.20;;;;;;;8.42;100.00;148268.41;4864739;29;21558;-61
2023/10/05 05:54:24;;;;;;;6.20;2.10;;;;;;;8.48;100.00;148282.06;4863194;29;20326;-62
2023/10/05 05:56:54;;;;;;;3.93;1.80;;;;;;;8.54;100.00;148295.75;4863968;29;20243;-61
2023/10/05 05:59:22;;;;;;;5.13;2.03;;;;;;;8.59;100.00;148306.97;4864213;29;20240;-62
2023/10/05 06:01:50;;;;;;;7.33;2.33;;;;;;;8.58;100.00;148305.72;4858156;29;20236;-61
2023/10/05 06:04:18;;;;;;;5.27;2.00;;;;;;;8.61;100.00;148311.94;4863182;29;20239;-62
2023/10/05 06:06:48;;;;;;;10.57;2.57;;;;;;;8.64;100.00;148319.41;4860535;29;20251;-62
2023/10/05 06:09:19;;;;;;;5.83;2.70;;;;;;;8.70;100.00;148334.34;4863705;29;20233;-63
2023/10/05 06:11:48;;;;;;;10.07;2.40;;;;;;;8.78;100.00;148352.97;4860611;29;20381;-63
2023/10/05 06:14:15;;;;;;;7.20;2.43;;;;;;;8.84;100.00;148369.19;4864824;29;20247;-61
2023/10/05 06:16:41;;;;;;;4.60;2.40;;;;;;;8.95;100.00;148395.28;4861396;29;20588;-62
2023/10/05 06:19:08;;;;;;;8.57;2.23;;;;;;;9.10;100.00;148430.13;4862753;29;20243;-62
2023/10/05 06:21:36;;;;;;;7.40;2.10;;;;;;;9.25;100.00;148467.47;4858916;29;20235;-62
2023/10/05 06:24:04;;;;;;;4.40;1.83;;;;;;;9.36;100.00;148492.34;4862384;29;20239;-62
2023/10/05 06:26:31;;;;;;;6.43;2.10;;;;;;;9.47;100.00;148519.72;4855387;29;20318;-63
2023/10/05 06:28:58;;;;;;;6.57;2.20;;;;;;;9.58;100.00;148547.06;4864722;29;20249;-63
2023/10/05 06:31:26;;;;;;;5.27;2.20;;;;;;;9.70;100.00;148574.44;4860654;29;20243;-60
2023/10/05 06:33:53;;;;;;;5.47;1.90;;;;;;;9.75;100.00;148588.16;4863912;29;20900;-60
2023/10/05 06:36:21;;;;;;;6.30;2.00;;;;;;;9.81;100.00;148601.84;4864555;29;20321;-60
2023/10/05 06:38:49;;;;;;;4.80;2.17;;;;;;;9.87;100.00;148616.78;4861606;29;20730;-60
2023/10/05 06:41:20;;;;;;;6.43;2.30;;;;;;;9.94;100.00;148631.72;4854431;29;20244;-60
2023/10/05 06:43:48;;;;;;;7.10;2.10;;;;;;;10.03;100.00;148654.13;4860149;29;20259;-61
2023/10/05 06:46:17;;;;;;;5.73;2.20;;;;;;;10.15;100.00;148684.00;4864590;29;20320;-63
2023/10/05 06:48:46;;;;;;;5.93;2.20;;;;;;;10.29;100.00;148716.38;4861828;29;20320;-62
2023/10/05 06:51:14;;;;;;;8.63;2.17;;;;;;;10.44;100.00;148752.53;4863630;29;20235;-62
2023/10/05 06:53:40;;;;;;;7.60;1.83;;;;;;;10.58;100.00;148787.41;4859032;29;20242;-62
2023/10/05 06:56:08;;;;;;;7.07;2.23;;;;;;;10.72;100.00;148821.00;4861297;29;20234;-62
2023/10/05 06:58:35;;;;;;;7.30;2.17;;;;;;;10.83;100.00;148845.94;4860808;29;20240;-62
2023/10/05 07:01:03;;;;;;;5.00;1.93;;;;;;;10.98;100.00;148883.31;4861143;29;20987;-62
2023/10/05 07:03:29;;;;;;;5.63;2.27;;;;;;;11.09;100.00;148909.50;4858696;29;20266;-62
2023/10/05 07:05:58;;;;;;;4.83;2.37;;;;;;;11.18;100.00;148931.88;4862987;29;20274;-62
2023/10/05 07:08:24;;;;;;;6.63;1.97;;;;;;;11.27;100.00;148953.06;4857904;29;20232;-62
2023/10/05 07:10:51;;;;;;;4.70;2.10;;;;;;;11.34;100.00;148970.53;4864960;29;20243;-62
2023/10/05 07:13:21;;;;;;;5.90;2.07;;;;;;;11.43;100.00;148991.69;4865319;29;20241;-62
2023/10/05 07:15:47;;;;;;;9.43;2.10;;;;;;;11.54;100.00;149017.88;4863589;29;20684;-62
2023/10/05 07:18:15;;;;;;;6.17;2.13;;;;;;;11.61;100.00;149034.06;4866267;29;20242;-62
2023/10/05 07:20:42;;;;;;;7.17;2.40;;;;;;;11.65;100.00;149045.31;4862874;29;20225;-62
2023/10/05 07:23:09;;;;;;;8.37;2.77;;;;;;;11.70;100.00;149055.22;4867177;29;20224;-62
2023/10/05 07:25:36;;;;;;;10.13;2.80;;;;;;;11.72;100.00;149061.47;4863510;29;20233;-62
2023/10/05 07:28:05;;;;;;;8.77;3.03;;;;;;;11.87;100.00;149096.38;4864590;29;20761;-62
2023/10/05 07:30:33;;;;;;;8.07;2.97;;;;;;;12.05;100.00;149140.03;4862893;29;20264;-62
2023/10/05 07:33:00;;;;;;;10.30;2.80;;;;;;;12.21;100.00;149179.94;4862092;29;20250;-62
2023/10/05 07:35:27;;;;;;;11.83;3.40;;;;;;;12.36;100.00;149214.84;4862843;29;20233;-62
2023/10/05 07:37:53;;;;;;;15.37;3.67;;;;;;;12.51;100.00;149252.28;4867555;29;20226;-62
2023/10/05 07:40:22;;;;;;;14.47;3.23;;;;;;;12.61;100.00;149274.72;4866496;29;20248;-62
2023/10/05 07:42:49;;;;;;;12.17;4.27;;;;;;;12.66;100.00;149287.19;4862852;29;20240;-62
2023/10/05 07:45:42;;;;;;;11.17;4.40;;;;;;;12.52;100.00;149253.50;4863750;29;20361;-62
2023/10/05 07:48:09;;;;;;;14.53;4.83;;;;;;;12.65;100.00;149284.69;4866458;29;20236;-63
2023/10/05 07:50:37;;;;;;;9.77;4.67;;;;;;;12.63;100.00;149280.94;4854063;29;20725;-63
2023/10/05 07:53:04;;;;;;;13.27;4.80;;;;;;;12.83;100.00;149328.34;4866478;29;20259;-63
2023/10/05 07:55:31;;;;;;;10.07;3.97;;;;;;;12.97;99.62;149362.00;4861966;29;20222;-62
2023/10/05 07:58:02;;;;;;;9.93;4.40;;;;;;;13.14;99.14;149403.19;4866046;29;20239;-63
2023/10/05 08:00:29;;;;;;;8.77;4.37;;;;;;;13.32;96.48;149445.56;4861857;29;20586;-63
2023/10/05 08:02:57;;;;;;;10.20;4.10;;;;;;;13.46;96.47;149480.53;4863042;29;20707;-63
2023/10/05 08:05:24;;;;;;;9.87;4.47;;;;;;;13.59;96.51;149511.75;4866007;29;20243;-63
2023/10/05 08:07:51;;;;;;;11.70;3.50;;;;;;;13.70;95.10;149539.22;4861904;29;20242;-62
2023/10/05 08:10:23;;;;;;;7.17;3.57;;;;;;;13.64;93.56;149522.97;4880408;29;20230;-63
2023/10/05 08:12:50;;;;;;;7.07;3.13;;;;;;;13.63;92.67;149520.47;4862241;29;20342;-63
2023/10/05 08:15:23;;;;;;;9.03;3.40;;;;;;;13.63;94.44;149521.75;4864791;29;20587;-63
2023/10/05 08:17:50;;;;;;;11.10;3.60;;;;;;;13.75;95.50;149550.44;4877292;29;20262;-63
2023/10/05 08:20:26;;;;;;;7.40;3.70;;;;;;;13.78;93.17;149556.69;4866854;29;20232;-62
2023/10/05 08:22:53;;;;;;;11.57;3.57;;;;;;;13.84;93.83;149571.63;4861207;29;20494;-62
2023/10/05 08:25:22;;;;;;;8.23;3.50;;;;;;;13.98;92.47;149606.56;4862287;29;20496;-63
2023/10/05 08:27:51;;;;;;;9.13;3.50;;;;;;;13.94;91.91;149596.59;4860597;29;20244;-63
2023/10/05 08:30:24;;;;;;;7.13;3.37;;;;;;;13.98;91.04;149606.56;4862242;29;20566;-62
2023/10/05 08:32:51;;;;;;;6.13;2.77;;;;;;;13.96;90.18;149600.38;4861287;29;20251;-62
2023/10/05 08:35:26;;;;;;;6.73;3.40;;;;;;;13.86;89.62;149577.88;4865695;29;20240;-62
2023/10/05 08:37:53;;;;;;;6.90;3.30;;;;;;;13.87;91.09;149579.13;4863341;29;20246;-62
2023/10/05 08:40:37;;;;;;;7.70;3.47;;;;;;;14.00;92.68;149611.56;4864031;29;20237;-63
2023/10/05 08:43:09;;;;;;;7.77;4.03;;;;;;;14.07;90.74;149627.81;4862195;29;20236;-63
2023/10/05 08:45:46;;;;;;;11.63;5.00;;;;;;;13.99;90.18;149609.06;4862271;29;20305;-62
2023/10/05 08:48:19;;;;;;;8.47;3.50;;;;;;;13.92;89.97;149591.59;4863952;29;20307;-62
2023/10/05 08:50:51;;;;;;;9.43;3.73;;;;;;;13.81;89.71;149564.13;4861137;29;20578;-62
2023/10/05 08:53:21;;;;;;;11.57;3.90;;;;;;;13.94;91.12;149595.38;4863949;29;20451;-63
2023/10/05 08:55:51;;;;;;;10.07;3.60;;;;;;;13.79;89.60;149559.16;4861788;29;20236;-63
2023/10/05 08:58:20;;;;;;;8.37;3.73;;;;;;;13.77;90.18;149555.44;4863010;29;20396;-62
2023/10/05 09:00:48;;;;;;;7.37;3.17;;;;;;;13.73;89.54;149546.72;4861677;29;20244;-60
2023/10/05 09:06:20;;;;;;;8.47;3.40;;;;;;;13.58;91.69;149509.28;5051540;27;20576;-60
2023/10/05 09:08:54;;;;;;;10.73;3.70;;;;;;;13.83;91.70;149569.13;5031834;28;20244;-60
2023/10/05 09:11:26;;;;;;;7.07;3.40;;;;;;;14.18;90.01;149654.03;5028703;28;20713;-60
2023/10/05 09:13:53;;;;;;;8.17;3.60;;;;;;;14.23;88.16;149665.28;5030418;28;20290;-61
2023/10/05 09:16:30;;;;;;;10.17;3.23;;;;;;;14.24;89.14;149667.78;5032527;28;20241;-61
2023/10/05 09:18:57;;;;;;;6.63;3.83;;;;;;;14.00;90.02;149610.34;5028220;28;20294;-60
2023/10/05 09:21:42;;;;;;;9.40;3.40;;;;;;;13.98;92.29;149606.56;5032497;28;20324;-61
2023/10/05 09:24:20;;;;;;;8.53;3.67;;;;;;;13.94;92.54;149596.59;5028002;28;20315;-61
2023/10/05 09:26:57;;;;;;;8.27;3.97;;;;;;;14.19;90.92;149656.50;5027927;28;20243;-60
2023/10/05 09:29:28;;;;;;;8.53;4.13;;;;;;;14.22;90.49;149662.78;5019702;28;20227;-60
2023/10/05 09:31:55;;;;;;;10.57;3.90;;;;;;;14.12;90.54;149640.31;5027361;28;20241;-60
2023/10/05 09:34:41;;;;;;;8.23;3.83;;;;;;;14.01;91.88;149614.06;5029319;28;20699;-60
2023/10/05 09:37:10;;;;;;;9.13;3.90;;;;;;;14.12;91.29;149640.31;5026082;28;20304;-60
2023/10/05 09:39:42;;;;;;;10.40;3.40;;;;;;;14.42;89.04;149711.44;5028607;28;20232;-60
2023/10/05 09:42:16;;;;;;;12.13;4.23;;;;;;;14.24;89.17;149669.00;5029596;28;20301;-59
2023/10/05 09:44:52;;;;;;;9.37;3.60;;;;;;;14.49;87.93;149727.66;5028031;28;20860;-61
2023/10/05 09:47:21;;;;;;;10.53;3.57;;;;;;;14.49;87.53;149727.66;5029835;28;20620;-60
2023/10/05 09:49:50;;;;;;;10.20;3.80;;;;;;;14.64;84.89;149765.13;5029928;28;20234;-59
2023/10/05 09:52:23;;;;;;;6.70;3.23;;;;;;;14.74;83.75;149788.91;5024560;28;20221;-60
2023/10/05 09:54:51;;;;;;;9.53;3.70;;;;;;;14.81;83.58;149805.13;5017293;28;20307;-60
2023/10/05 09:57:20;;;;;;;8.47;3.80;;;;;;;14.69;84.20;149777.66;5015403;28;20231;-60
2023/10/05 09:59:57;;;;;;;8.90;3.77;;;;;;;14.93;82.32;149833.84;5017671;28;20309;-61
2023/10/05 10:02:32;;;;;;;8.27;3.70;;;;;;;14.73;84.14;149787.66;5016289;28;20230;-60
2023/10/05 10:05:00;;;;;;;6.73;3.20;;;;;;;15.24;82.39;149910.06;5018776;28;20234;-61
2023/10/05 10:07:32;;;;;;;6.10;3.47;;;;;;;15.19;83.16;149897.56;5027164;28;20220;-61
2023/10/05 10:10:01;;;;;;;7.63;3.53;;;;;;;15.20;81.62;149900.06;5029479;28;20235;-61
2023/10/05 10:12:33;;;;;;;7.20;3.10;;;;;;;15.43;81.10;149954.97;5031563;28;20219;-61
2023/10/05 10:15:00;;;;;;;7.77;3.53;;;;;;;15.33;80.25;149931.28;5029313;28;20250;-61
2023/10/05 10:17:34;;;;;;;7.47;3.13;;;;;;;15.35;78.53;149937.53;5014110;28;20250;-60
2023/10/05 10:20:17;;;;;;;12.00;3.80;;;;;;;15.35;79.50;149936.25;5010559;28;20590;-60
2023/10/05 10:22:55;;;;;;;6.57;3.30;;;;;;;15.31;78.27;149927.53;5011595;28;20298;-59
2023/10/05 10:25:30;;;;;;;7.03;3.43;;;;;;;15.87;78.49;150061.28;5016062;28;20233;-60
2023/10/05 10:28:18;;;;;;;8.63;3.60;;;;;;;16.09;75.76;150116.22;4993925;28;20323;-60
2023/10/05 10:30:47;;;;;;;8.77;2.97;;;;;;;16.48;73.60;150208.72;4998509;28;20442;-60
2023/10/05 10:33:30;;;;;;;8.47;3.07;;;;;;;16.53;73.29;150221.22;5011822;28;20758;-60
2023/10/05 10:35:58;;;;;;;7.63;3.20;;;;;;;16.27;73.02;150158.72;5014425;28;20238;-60
2023/10/05 10:38:27;;;;;;;8.53;3.10;;;;;;;16.41;72.79;150191.22;5015128;28;20235;-61
2023/10/05 10:41:09;;;;;;;11.57;3.40;;;;;;;16.57;73.13;150229.94;5016537;28;20251;-61
2023/10/05 10:43:36;;;;;;;7.83;3.20;;;;;;;16.81;71.61;150289.97;5014329;28;20654;-60
2023/10/05 10:46:12;;;;;;;9.53;3.30;;;;;;;16.78;71.23;150281.25;5019258;28;20231;-61
2023/10/05 10:48:53;;;;;;;14.47;4.13;;;;;;;16.66;69.80;150253.72;5014754;28;20262;-60
2023/10/05 10:51:21;;;;;;;9.80;3.40;;;;;;;16.62;73.28;150242.44;5008571;28;20231;-61
2023/10/05 10:53:55;;;;;;;8.60;3.50;;;;;;;16.87;71.44;150303.75;5015613;28;20640;-60
2023/10/05 10:56:27;;;;;;;8.80;3.20;;;;;;;16.56;72.47;150227.44;5016115;28;20233;-61
2023/10/05 10:59:09;;;;;;;10.07;3.40;;;;;;;16.60;70.54;150237.44;5013064;28;20250;-61
2023/10/05 11:01:43;;;;;;;13.97;3.50;;;;;;;16.49;71.15;150211.22;5010737;28;20247;-61
2023/10/05 11:04:25;;;;;;;12.63;3.73;;;;;;;16.66;71.42;150253.72;5015932;28;20227;-61
2023/10/05 11:06:56;;;;;;;10.87;3.33;;;;;;;16.81;71.19;150288.75;5010556;28;20232;-60
2023/10/05 11:09:31;;;;;;;10.87;3.57;;;;;;;16.76;69.24;150277.47;5014834;28;20239;-61
2023/10/05 11:12:08;;;;;;;10.63;3.97;;;;;;;16.53;70.33;150222.44;5012731;28;20239;-61
2023/10/05 11:14:37;;;;;;;10.33;3.57;;;;;;;16.54;71.45;150223.72;4998333;28;20231;-60
2023/10/05 11:17:11;;;;;;;11.53;3.87;;;;;;;16.73;71.03;150268.75;5016267;28;20258;-60
2023/10/05 11:19:39;;;;;;;8.80;3.93;;;;;;;16.68;71.37;150257.47;5009756;28;20238;-61
2023/10/05 11:22:11;;;;;;;9.63;3.57;;;;;;;16.74;72.23;150271.22;5015889;28;20596;-61
2023/10/05 11:25:14;;;;;;;9.37;3.40;;;;;;;16.78;69.24;150281.25;5008697;28;20713;-60
2023/10/05 11:27:54;;;;;;;15.07;3.93;;;;;;;16.78;68.76;150282.47;5010818;28;20251;-61
2023/10/05 11:30:24;;;;;;;9.57;3.73;;;;;;;16.66;69.07;150252.47;5017302;28;20220;-60
2023/10/05 11:32:56;;;;;;;13.43;4.10;;;;;;;17.00;67.07;150333.75;5005186;28;20662;-61
2023/10/05 11:35:42;;;;;;;11.87;4.17;;;;;;;17.31;67.16;150408.81;5015182;28;20639;-60
2023/10/05 11:38:14;;;;;;;10.20;3.43;;;;;;;17.60;65.99;150480.09;5016788;28;20275;-61
2023/10/05 11:40:49;;;;;;;7.03;2.73;;;;;;;17.55;66.47;150468.84;5010970;28;20251;-61
2023/10/05 11:43:17;;;;;;;13.80;3.57;;;;;;;17.86;64.54;150542.63;5013936;28;20570;-60